sensor_id;sensor_type;location;lat;lon;timestamp;P1;durP1;ratioP1;P2;durP2;ratioP2
17384;SDS011;8810;48.680;8.894;2023-01-20T00:01:02;13.50;;;6.83;;
17384;SDS011;8810;48.680;8.894;2023-01-20T00:03:29;12.73;;;6.90;;
17384;SDS011;8810;48.680;8.894;2023-01-20T00:05:56;13.07;;;6.57;;
17384;SDS011;8810;48.680;8.894;2023-01-20T00:08:23;11.60;;;5.83;;
17384;SDS011;8810;48.680;8.894;2023-01-20T00:10:49;11.70;;;6.57;;
17384;SDS011;8810;48.680;8.894;2023-01-20T00:13:16;14.70;;;6.13;;
17384;SDS011;8810;48.680;8.894;2023-01-20T00:15:43;13.53;;;6.00;;
17384;SDS011;8810;48.680;8.894;2023-01-20T00:18:11;10.90;;;5.90;;
17384;SDS011;8810;48.680;8.894;2023-01-20T00:20:38;15.40;;;6.30;;
17384;SDS011;8810;48.680;8.894;2023-01-20T00:23:05;12.83;;;6.40;;
17384;SDS011;8810;48.680;8.894;2023-01-20T00:25:34;10.93;;;6.00;;
17384;SDS011;8810;48.680;8.894;2023-01-20T00:28:01;12.77;;;5.87;;
17384;SDS011;8810;48.680;8.894;2023-01-20T00:30:28;12.60;;;6.27;;
17384;SDS011;8810;48.680;8.894;2023-01-20T00:32:55;15.87;;;7.13;;
17384;SDS011;8810;48.680;8.894;2023-01-20T00:35:23;12.17;;;6.43;;
17384;SDS011;8810;48.680;8.894;2023-01-20T00:37:50;11.07;;;5.63;;
17384;SDS011;8810;48.680;8.894;2023-01-20T00:40:17;11.43;;;6.90;;
17384;SDS011;8810;48.680;8.894;2023-01-20T00:42:44;10.87;;;5.97;;
17384;SDS011;8810;48.680;8.894;2023-01-20T00:45:10;11.00;;;5.57;;
17384;SDS011;8810;48.680;8.894;2023-01-20T00:47:37;11.93;;;6.17;;
17384;SDS011;8810;48.680;8.894;2023-01-20T00:50:04;12.83;;;5.73;;
17384;SDS011;8810;48.680;8.894;2023-01-20T00:52:33;11.97;;;6.07;;
17384;SDS011;8810;48.680;8.894;2023-01-20T00:55:00;9.67;;;5.33;;
17384;SDS011;8810;48.680;8.894;2023-01-20T00:57:26;9.33;;;5.70;;
17384;SDS011;8810;48.680;8.894;2023-01-20T00:59:53;12.60;;;6.53;;
17384;SDS011;8810;48.680;8.894;2023-01-20T01:02:20;12.80;;;6.30;;
17384;SDS011;8810;48.680;8.894;2023-01-20T01:04:48;13.23;;;6.63;;
17384;SDS011;8810;48.680;8.894;2023-01-20T01:07:15;15.83;;;6.63;;
17384;SDS011;8810;48.680;8.894;2023-01-20T01:09:44;16.70;;;7.07;;
17384;SDS011;8810;48.680;8.894;2023-01-20T01:12:10;15.70;;;6.43;;
17384;SDS011;8810;48.680;8.894;2023-01-20T01:14:37;12.60;;;6.03;;
17384;SDS011;8810;48.680;8.894;2023-01-20T01:17:04;13.00;;;6.80;;
17384;SDS011;8810;48.680;8.894;2023-01-20T01:19:31;12.37;;;6.33;;
17384;SDS011;8810;48.680;8.894;2023-01-20T01:21:58;11.67;;;6.60;;
17384;SDS011;8810;48.680;8.894;2023-01-20T01:24:24;13.00;;;5.90;;
17384;SDS011;8810;48.680;8.894;2023-01-20T01:26:53;10.63;;;5.80;;
17384;SDS011;8810;48.680;8.894;2023-01-20T01:29:20;11.03;;;6.03;;
17384;SDS011;8810;48.680;8.894;2023-01-20T01:31:46;12.70;;;6.23;;
17384;SDS011;8810;48.680;8.894;2023-01-20T01:34:13;10.57;;;5.67;;
17384;SDS011;8810;48.680;8.894;2023-01-20T01:36:40;10.53;;;5.73;;
17384;SDS011;8810;48.680;8.894;2023-01-20T01:39:07;13.07;;;5.63;;
17384;SDS011;8810;48.680;8.894;2023-01-20T01:41:34;15.63;;;6.27;;
17384;SDS011;8810;48.680;8.894;2023-01-20T01:44:03;12.37;;;5.90;;
17384;SDS011;8810;48.680;8.894;2023-01-20T01:46:32;11.93;;;6.13;;
17384;SDS011;8810;48.680;8.894;2023-01-20T01:48:59;13.50;;;6.87;;
17384;SDS011;8810;48.680;8.894;2023-01-20T01:51:29;11.27;;;6.17;;
17384;SDS011;8810;48.680;8.894;2023-01-20T01:54:01;11.77;;;6.47;;
17384;SDS011;8810;48.680;8.894;2023-01-20T01:56:30;10.97;;;5.70;;
17384;SDS011;8810;48.680;8.894;2023-01-20T01:58:59;9.13;;;5.73;;
17384;SDS011;8810;48.680;8.894;2023-01-20T02:01:29;13.67;;;5.80;;
17384;SDS011;8810;48.680;8.894;2023-01-20T02:03:58;11.30;;;5.93;;
17384;SDS011;8810;48.680;8.894;2023-01-20T02:06:31;12.13;;;7.10;;
17384;SDS011;8810;48.680;8.894;2023-01-20T02:11:27;10.37;;;5.90;;
17384;SDS011;8810;48.680;8.894;2023-01-20T02:13:55;10.77;;;5.77;;
17384;SDS011;8810;48.680;8.894;2023-01-20T02:16:24;11.50;;;5.83;;
17384;SDS011;8810;48.680;8.894;2023-01-20T02:18:59;12.83;;;5.60;;
17384;SDS011;8810;48.680;8.894;2023-01-20T02:24:42;10.17;;;5.30;;
17384;SDS011;8810;48.680;8.894;2023-01-20T02:27:34;12.30;;;5.73;;
17384;SDS011;8810;48.680;8.894;2023-01-20T02:33:06;12.17;;;5.47;;
17384;SDS011;8810;48.680;8.894;2023-01-20T02:35:38;13.03;;;5.50;;
17384;SDS011;8810;48.680;8.894;2023-01-20T02:38:12;10.70;;;5.80;;
17384;SDS011;8810;48.680;8.894;2023-01-20T02:40:46;12.07;;;6.30;;
17384;SDS011;8810;48.680;8.894;2023-01-20T02:43:19;12.77;;;5.53;;
17384;SDS011;8810;48.680;8.894;2023-01-20T02:45:54;10.03;;;5.23;;
17384;SDS011;8810;48.680;8.894;2023-01-20T02:48:28;12.10;;;5.87;;
17384;SDS011;8810;48.680;8.894;2023-01-20T02:51:00;11.63;;;5.57;;
17384;SDS011;8810;48.680;8.894;2023-01-20T02:53:35;11.60;;;5.27;;
17384;SDS011;8810;48.680;8.894;2023-01-20T02:56:08;9.83;;;5.03;;
17384;SDS011;8810;48.680;8.894;2023-01-20T02:58:38;11.83;;;5.23;;
17384;SDS011;8810;48.680;8.894;2023-01-20T03:01:09;11.73;;;5.97;;
17384;SDS011;8810;48.680;8.894;2023-01-20T03:03:40;9.70;;;5.37;;
17384;SDS011;8810;48.680;8.894;2023-01-20T03:06:11;8.33;;;5.20;;
17384;SDS011;8810;48.680;8.894;2023-01-20T03:08:42;11.17;;;5.47;;
17384;SDS011;8810;48.680;8.894;2023-01-20T03:11:12;11.07;;;6.13;;
17384;SDS011;8810;48.680;8.894;2023-01-20T03:13:40;10.20;;;4.97;;
17384;SDS011;8810;48.680;8.894;2023-01-20T03:16:11;7.77;;;4.50;;
17384;SDS011;8810;48.680;8.894;2023-01-20T03:18:42;9.67;;;4.83;;
17384;SDS011;8810;48.680;8.894;2023-01-20T03:21:10;9.23;;;4.93;;
17384;SDS011;8810;48.680;8.894;2023-01-20T03:23:39;8.10;;;4.47;;
17384;SDS011;8810;48.680;8.894;2023-01-20T03:26:09;9.07;;;4.80;;
17384;SDS011;8810;48.680;8.894;2023-01-20T03:28:37;6.30;;;4.07;;
17384;SDS011;8810;48.680;8.894;2023-01-20T03:31:08;8.03;;;4.57;;
17384;SDS011;8810;48.680;8.894;2023-01-20T03:33:39;8.33;;;4.70;;
17384;SDS011;8810;48.680;8.894;2023-01-20T03:36:08;8.47;;;4.87;;
17384;SDS011;8810;48.680;8.894;2023-01-20T03:38:35;7.67;;;4.60;;
17384;SDS011;8810;48.680;8.894;2023-01-20T03:41:03;10.07;;;4.60;;
17384;SDS011;8810;48.680;8.894;2023-01-20T03:43:40;10.53;;;5.13;;
17384;SDS011;8810;48.680;8.894;2023-01-20T03:46:11;7.67;;;4.67;;
17384;SDS011;8810;48.680;8.894;2023-01-20T03:48:46;8.90;;;4.47;;
17384;SDS011;8810;48.680;8.894;2023-01-20T03:51:19;9.13;;;4.60;;
17384;SDS011;8810;48.680;8.894;2023-01-20T03:53:51;7.83;;;4.70;;
17384;SDS011;8810;48.680;8.894;2023-01-20T03:56:22;7.37;;;4.50;;
17384;SDS011;8810;48.680;8.894;2023-01-20T03:58:53;9.70;;;4.43;;
17384;SDS011;8810;48.680;8.894;2023-01-20T04:01:26;7.47;;;4.50;;
17384;SDS011;8810;48.680;8.894;2023-01-20T04:03:58;10.17;;;4.40;;
17384;SDS011;8810;48.680;8.894;2023-01-20T04:06:27;9.77;;;4.53;;
17384;SDS011;8810;48.680;8.894;2023-01-20T04:08:57;8.47;;;4.83;;
17384;SDS011;8810;48.680;8.894;2023-01-20T04:11:27;9.63;;;5.23;;
17384;SDS011;8810;48.680;8.894;2023-01-20T04:13:54;7.73;;;4.53;;
17384;SDS011;8810;48.680;8.894;2023-01-20T04:16:22;9.03;;;4.97;;
17384;SDS011;8810;48.680;8.894;2023-01-20T04:18:50;9.47;;;5.27;;
17384;SDS011;8810;48.680;8.894;2023-01-20T04:21:20;9.90;;;5.17;;
17384;SDS011;8810;48.680;8.894;2023-01-20T04:23:53;8.77;;;4.77;;
17384;SDS011;8810;48.680;8.894;2023-01-20T04:26:22;9.53;;;4.67;;
17384;SDS011;8810;48.680;8.894;2023-01-20T04:28:49;9.63;;;4.90;;
17384;SDS011;8810;48.680;8.894;2023-01-20T04:31:16;11.20;;;5.40;;
17384;SDS011;8810;48.680;8.894;2023-01-20T04:33:43;10.27;;;5.23;;
17384;SDS011;8810;48.680;8.894;2023-01-20T04:36:10;8.60;;;5.00;;
17384;SDS011;8810;48.680;8.894;2023-01-20T04:38:38;11.47;;;5.80;;
17384;SDS011;8810;48.680;8.894;2023-01-20T04:41:05;9.13;;;5.07;;
17384;SDS011;8810;48.680;8.894;2023-01-20T04:43:34;7.70;;;4.37;;
17384;SDS011;8810;48.680;8.894;2023-01-20T04:46:01;8.07;;;5.07;;
17384;SDS011;8810;48.680;8.894;2023-01-20T04:48:28;9.00;;;4.67;;
17384;SDS011;8810;48.680;8.894;2023-01-20T04:50:55;8.30;;;4.73;;
17384;SDS011;8810;48.680;8.894;2023-01-20T04:53:21;7.80;;;4.80;;
17384;SDS011;8810;48.680;8.894;2023-01-20T04:55:50;9.17;;;4.90;;
17384;SDS011;8810;48.680;8.894;2023-01-20T04:58:16;9.37;;;4.80;;
17384;SDS011;8810;48.680;8.894;2023-01-20T05:00:43;9.00;;;5.23;;
17384;SDS011;8810;48.680;8.894;2023-01-20T05:03:10;8.73;;;5.27;;
17384;SDS011;8810;48.680;8.894;2023-01-20T05:05:37;12.70;;;4.83;;
17384;SDS011;8810;48.680;8.894;2023-01-20T05:08:04;9.93;;;4.97;;
17384;SDS011;8810;48.680;8.894;2023-01-20T05:10:31;11.27;;;5.37;;
17384;SDS011;8810;48.680;8.894;2023-01-20T05:13:00;10.77;;;4.77;;
17384;SDS011;8810;48.680;8.894;2023-01-20T05:15:27;9.60;;;5.40;;
17384;SDS011;8810;48.680;8.894;2023-01-20T05:17:54;8.60;;;4.57;;
17384;SDS011;8810;48.680;8.894;2023-01-20T05:20:20;10.10;;;5.10;;
17384;SDS011;8810;48.680;8.894;2023-01-20T05:22:47;9.10;;;5.07;;
17384;SDS011;8810;48.680;8.894;2023-01-20T05:25:14;8.27;;;5.10;;
17384;SDS011;8810;48.680;8.894;2023-01-20T05:27:41;7.90;;;4.57;;
17384;SDS011;8810;48.680;8.894;2023-01-20T05:30:10;7.70;;;4.57;;
17384;SDS011;8810;48.680;8.894;2023-01-20T05:32:38;8.70;;;4.63;;
17384;SDS011;8810;48.680;8.894;2023-01-20T05:35:05;12.13;;;5.20;;
17384;SDS011;8810;48.680;8.894;2023-01-20T05:37:33;9.50;;;5.40;;
17384;SDS011;8810;48.680;8.894;2023-01-20T05:40:01;9.53;;;5.03;;
17384;SDS011;8810;48.680;8.894;2023-01-20T05:42:27;8.87;;;5.00;;
17384;SDS011;8810;48.680;8.894;2023-01-20T05:44:56;8.53;;;5.10;;
17384;SDS011;8810;48.680;8.894;2023-01-20T05:47:25;10.67;;;5.37;;
17384;SDS011;8810;48.680;8.894;2023-01-20T05:49:51;9.13;;;5.37;;
17384;SDS011;8810;48.680;8.894;2023-01-20T05:52:18;11.60;;;5.93;;
17384;SDS011;8810;48.680;8.894;2023-01-20T05:54:45;12.33;;;5.07;;
17384;SDS011;8810;48.680;8.894;2023-01-20T05:57:12;11.00;;;5.50;;
17384;SDS011;8810;48.680;8.894;2023-01-20T05:59:42;11.13;;;5.40;;
17384;SDS011;8810;48.680;8.894;2023-01-20T06:02:09;10.05;;;6.05;;
17384;SDS011;8810;48.680;8.894;2023-01-20T06:04:38;10.03;;;5.53;;
17384;SDS011;8810;48.680;8.894;2023-01-20T06:07:05;10.40;;;5.10;;
17384;SDS011;8810;48.680;8.894;2023-01-20T06:09:32;11.13;;;5.70;;
17384;SDS011;8810;48.680;8.894;2023-01-20T06:11:59;11.60;;;5.90;;
17384;SDS011;8810;48.680;8.894;2023-01-20T06:14:25;13.57;;;6.10;;
17384;SDS011;8810;48.680;8.894;2023-01-20T06:16:52;15.80;;;7.60;;
17384;SDS011;8810;48.680;8.894;2023-01-20T06:19:19;17.37;;;7.97;;
17384;SDS011;8810;48.680;8.894;2023-01-20T06:21:47;15.17;;;7.43;;
17384;SDS011;8810;48.680;8.894;2023-01-20T06:24:14;12.37;;;6.10;;
17384;SDS011;8810;48.680;8.894;2023-01-20T06:26:41;12.30;;;6.10;;
17384;SDS011;8810;48.680;8.894;2023-01-20T06:29:08;13.37;;;6.30;;
17384;SDS011;8810;48.680;8.894;2023-01-20T06:31:35;11.87;;;6.03;;
17384;SDS011;8810;48.680;8.894;2023-01-20T06:34:02;14.00;;;6.27;;
17384;SDS011;8810;48.680;8.894;2023-01-20T06:36:29;11.37;;;5.60;;
17384;SDS011;8810;48.680;8.894;2023-01-20T06:38:57;12.73;;;6.83;;
17384;SDS011;8810;48.680;8.894;2023-01-20T06:41:24;13.10;;;6.43;;
17384;SDS011;8810;48.680;8.894;2023-01-20T06:43:51;14.27;;;6.00;;
17384;SDS011;8810;48.680;8.894;2023-01-20T06:46:17;10.20;;;5.40;;
17384;SDS011;8810;48.680;8.894;2023-01-20T06:48:44;16.50;;;7.43;;
17384;SDS011;8810;48.680;8.894;2023-01-20T06:51:12;31.00;;;12.70;;
17384;SDS011;8810;48.680;8.894;2023-01-20T06:53:39;23.23;;;10.27;;
17384;SDS011;8810;48.680;8.894;2023-01-20T06:56:09;16.80;;;8.43;;
17384;SDS011;8810;48.680;8.894;2023-01-20T06:58:37;14.27;;;6.63;;
17384;SDS011;8810;48.680;8.894;2023-01-20T07:01:05;12.67;;;6.93;;
17384;SDS011;8810;48.680;8.894;2023-01-20T07:03:33;13.73;;;7.00;;
17384;SDS011;8810;48.680;8.894;2023-01-20T07:06:01;13.43;;;6.87;;
17384;SDS011;8810;48.680;8.894;2023-01-20T07:08:29;10.23;;;6.13;;
17384;SDS011;8810;48.680;8.894;2023-01-20T07:10:56;13.63;;;6.47;;
17384;SDS011;8810;48.680;8.894;2023-01-20T07:13:24;8.73;;;5.20;;
17384;SDS011;8810;48.680;8.894;2023-01-20T07:15:51;11.83;;;6.10;;
17384;SDS011;8810;48.680;8.894;2023-01-20T07:18:18;8.73;;;5.23;;
17384;SDS011;8810;48.680;8.894;2023-01-20T07:20:45;12.67;;;5.07;;
17384;SDS011;8810;48.680;8.894;2023-01-20T07:23:12;10.00;;;4.90;;
17384;SDS011;8810;48.680;8.894;2023-01-20T07:25:39;14.00;;;5.40;;
17384;SDS011;8810;48.680;8.894;2023-01-20T07:28:05;16.20;;;7.10;;
17384;SDS011;8810;48.680;8.894;2023-01-20T07:30:34;17.90;;;7.23;;
17384;SDS011;8810;48.680;8.894;2023-01-20T07:33:01;20.87;;;7.13;;
17384;SDS011;8810;48.680;8.894;2023-01-20T07:35:29;12.20;;;5.83;;
17384;SDS011;8810;48.680;8.894;2023-01-20T07:37:56;12.27;;;6.00;;
17384;SDS011;8810;48.680;8.894;2023-01-20T07:40:23;13.97;;;6.83;;
17384;SDS011;8810;48.680;8.894;2023-01-20T07:42:50;12.47;;;6.37;;
17384;SDS011;8810;48.680;8.894;2023-01-20T07:45:17;10.77;;;5.80;;
17384;SDS011;8810;48.680;8.894;2023-01-20T07:47:45;15.63;;;7.17;;
17384;SDS011;8810;48.680;8.894;2023-01-20T07:50:12;21.30;;;8.83;;
17384;SDS011;8810;48.680;8.894;2023-01-20T07:52:39;18.53;;;8.90;;
17384;SDS011;8810;48.680;8.894;2023-01-20T07:55:06;23.80;;;8.37;;
17384;SDS011;8810;48.680;8.894;2023-01-20T07:57:33;18.40;;;8.10;;
17384;SDS011;8810;48.680;8.894;2023-01-20T08:00:00;16.13;;;8.13;;
17384;SDS011;8810;48.680;8.894;2023-01-20T08:02:27;11.47;;;6.23;;
17384;SDS011;8810;48.680;8.894;2023-01-20T08:04:55;10.87;;;5.63;;
17384;SDS011;8810;48.680;8.894;2023-01-20T08:07:22;9.93;;;5.53;;
17384;SDS011;8810;48.680;8.894;2023-01-20T08:09:49;9.90;;;4.50;;
17384;SDS011;8810;48.680;8.894;2023-01-20T08:12:16;8.10;;;4.30;;
17384;SDS011;8810;48.680;8.894;2023-01-20T08:14:43;10.83;;;4.67;;
17384;SDS011;8810;48.680;8.894;2023-01-20T08:17:10;9.53;;;5.00;;
17384;SDS011;8810;48.680;8.894;2023-01-20T08:19:37;13.30;;;4.97;;
17384;SDS011;8810;48.680;8.894;2023-01-20T08:22:06;9.43;;;5.17;;
17384;SDS011;8810;48.680;8.894;2023-01-20T08:24:32;9.67;;;5.27;;
17384;SDS011;8810;48.680;8.894;2023-01-20T08:26:59;9.87;;;5.20;;
17384;SDS011;8810;48.680;8.894;2023-01-20T08:29:26;13.50;;;6.50;;
17384;SDS011;8810;48.680;8.894;2023-01-20T08:31:56;23.50;;;10.13;;
17384;SDS011;8810;48.680;8.894;2023-01-20T08:34:24;18.47;;;8.93;;
17384;SDS011;8810;48.680;8.894;2023-01-20T08:36:51;15.80;;;7.60;;
17384;SDS011;8810;48.680;8.894;2023-01-20T08:39:22;12.47;;;5.87;;
17384;SDS011;8810;48.680;8.894;2023-01-20T08:41:49;10.27;;;5.70;;
17384;SDS011;8810;48.680;8.894;2023-01-20T08:44:16;11.50;;;5.67;;
17384;SDS011;8810;48.680;8.894;2023-01-20T08:46:44;10.90;;;5.00;;
17384;SDS011;8810;48.680;8.894;2023-01-20T08:49:12;13.83;;;5.53;;
17384;SDS011;8810;48.680;8.894;2023-01-20T08:51:41;11.27;;;5.37;;
17384;SDS011;8810;48.680;8.894;2023-01-20T08:54:09;11.60;;;5.20;;
17384;SDS011;8810;48.680;8.894;2023-01-20T08:56:37;10.83;;;5.23;;
17384;SDS011;8810;48.680;8.894;2023-01-20T08:59:04;8.37;;;4.53;;
17384;SDS011;8810;48.680;8.894;2023-01-20T09:01:32;9.30;;;5.13;;
17384;SDS011;8810;48.680;8.894;2023-01-20T09:04:01;8.23;;;5.10;;
17384;SDS011;8810;48.680;8.894;2023-01-20T09:06:29;11.80;;;5.60;;
17384;SDS011;8810;48.680;8.894;2023-01-20T09:08:56;9.17;;;5.07;;
17384;SDS011;8810;48.680;8.894;2023-01-20T09:11:23;12.70;;;5.33;;
17384;SDS011;8810;48.680;8.894;2023-01-20T09:13:52;9.87;;;4.57;;
17384;SDS011;8810;48.680;8.894;2023-01-20T09:16:20;10.97;;;5.60;;
17384;SDS011;8810;48.680;8.894;2023-01-20T09:18:47;8.90;;;4.73;;
17384;SDS011;8810;48.680;8.894;2023-01-20T09:21:13;11.43;;;4.90;;
17384;SDS011;8810;48.680;8.894;2023-01-20T09:23:40;10.67;;;5.00;;
17384;SDS011;8810;48.680;8.894;2023-01-20T09:26:08;8.40;;;4.47;;
17384;SDS011;8810;48.680;8.894;2023-01-20T09:28:35;11.53;;;5.73;;
17384;SDS011;8810;48.680;8.894;2023-01-20T09:31:04;11.90;;;6.43;;
17384;SDS011;8810;48.680;8.894;2023-01-20T09:33:32;15.20;;;7.43;;
17384;SDS011;8810;48.680;8.894;2023-01-20T09:36:02;13.70;;;7.27;;
17384;SDS011;8810;48.680;8.894;2023-01-20T09:38:31;11.37;;;6.43;;
17384;SDS011;8810;48.680;8.894;2023-01-20T09:41:16;11.53;;;5.97;;
17384;SDS011;8810;48.680;8.894;2023-01-20T09:44:06;12.17;;;5.80;;
17384;SDS011;8810;48.680;8.894;2023-01-20T09:46:51;9.80;;;5.37;;
17384;SDS011;8810;48.680;8.894;2023-01-20T09:49:55;15.33;;;7.80;;
17384;SDS011;8810;48.680;8.894;2023-01-20T09:53:02;13.23;;;7.90;;
17384;SDS011;8810;48.680;8.894;2023-01-20T09:55:39;17.60;;;9.77;;
17384;SDS011;8810;48.680;8.894;2023-01-20T09:58:17;9.37;;;5.70;;
17384;SDS011;8810;48.680;8.894;2023-01-20T10:00:55;11.00;;;5.47;;
17384;SDS011;8810;48.680;8.894;2023-01-20T10:03:33;12.17;;;5.93;;
17384;SDS011;8810;48.680;8.894;2023-01-20T10:06:06;11.63;;;6.27;;
17384;SDS011;8810;48.680;8.894;2023-01-20T10:08:39;12.47;;;7.03;;
17384;SDS011;8810;48.680;8.894;2023-01-20T10:11:12;13.47;;;5.53;;
17384;SDS011;8810;48.680;8.894;2023-01-20T10:13:44;13.60;;;5.67;;
17384;SDS011;8810;48.680;8.894;2023-01-20T10:16:17;8.80;;;5.20;;
17384;SDS011;8810;48.680;8.894;2023-01-20T10:18:52;8.73;;;5.00;;
17384;SDS011;8810;48.680;8.894;2023-01-20T10:21:24;10.17;;;4.90;;
17384;SDS011;8810;48.680;8.894;2023-01-20T10:23:57;9.57;;;4.97;;
17384;SDS011;8810;48.680;8.894;2023-01-20T10:26:30;9.77;;;4.70;;
17384;SDS011;8810;48.680;8.894;2023-01-20T10:29:03;9.53;;;5.33;;
17384;SDS011;8810;48.680;8.894;2023-01-20T10:31:35;15.13;;;7.23;;
17384;SDS011;8810;48.680;8.894;2023-01-20T10:34:10;13.80;;;6.43;;
17384;SDS011;8810;48.680;8.894;2023-01-20T10:36:42;11.57;;;6.03;;
17384;SDS011;8810;48.680;8.894;2023-01-20T10:39:18;9.20;;;5.27;;
17384;SDS011;8810;48.680;8.894;2023-01-20T10:41:53;7.60;;;4.87;;
17384;SDS011;8810;48.680;8.894;2023-01-20T10:44:27;6.97;;;4.30;;
17384;SDS011;8810;48.680;8.894;2023-01-20T10:46:57;6.57;;;4.33;;
17384;SDS011;8810;48.680;8.894;2023-01-20T10:50:04;6.57;;;3.90;;
17384;SDS011;8810;48.680;8.894;2023-01-20T10:53:18;8.90;;;3.60;;
17384;SDS011;8810;48.680;8.894;2023-01-20T10:55:57;7.47;;;4.03;;
17384;SDS011;8810;48.680;8.894;2023-01-20T10:58:33;6.70;;;4.20;;
17384;SDS011;8810;48.680;8.894;2023-01-20T11:01:03;7.83;;;3.70;;
17384;SDS011;8810;48.680;8.894;2023-01-20T11:03:33;6.13;;;3.67;;
17384;SDS011;8810;48.680;8.894;2023-01-20T11:06:04;7.10;;;3.83;;
17384;SDS011;8810;48.680;8.894;2023-01-20T11:08:32;5.63;;;3.43;;
17384;SDS011;8810;48.680;8.894;2023-01-20T11:10:59;8.50;;;3.50;;
17384;SDS011;8810;48.680;8.894;2023-01-20T11:13:35;5.17;;;3.43;;
17384;SDS011;8810;48.680;8.894;2023-01-20T11:16:03;4.60;;;3.10;;
17384;SDS011;8810;48.680;8.894;2023-01-20T11:18:36;6.13;;;3.00;;
17384;SDS011;8810;48.680;8.894;2023-01-20T11:21:06;5.90;;;3.30;;
17384;SDS011;8810;48.680;8.894;2023-01-20T11:23:35;7.53;;;3.23;;
17384;SDS011;8810;48.680;8.894;2023-01-20T11:26:05;5.80;;;3.33;;
17384;SDS011;8810;48.680;8.894;2023-01-20T11:28:43;4.87;;;3.10;;
17384;SDS011;8810;48.680;8.894;2023-01-20T11:31:13;5.97;;;3.63;;
17384;SDS011;8810;48.680;8.894;2023-01-20T11:33:43;7.60;;;3.60;;
17384;SDS011;8810;48.680;8.894;2023-01-20T11:36:22;5.37;;;3.07;;
17384;SDS011;8810;48.680;8.894;2023-01-20T11:38:51;5.47;;;3.00;;
17384;SDS011;8810;48.680;8.894;2023-01-20T11:41:20;5.23;;;3.20;;
17384;SDS011;8810;48.680;8.894;2023-01-20T11:43:49;4.97;;;3.47;;
17384;SDS011;8810;48.680;8.894;2023-01-20T11:46:21;4.57;;;2.80;;
17384;SDS011;8810;48.680;8.894;2023-01-20T11:51:46;5.70;;;2.40;;
17384;SDS011;8810;48.680;8.894;2023-01-20T11:54:15;4.50;;;2.70;;
17384;SDS011;8810;48.680;8.894;2023-01-20T11:56:45;4.60;;;3.10;;
17384;SDS011;8810;48.680;8.894;2023-01-20T11:59:17;5.10;;;2.90;;
17384;SDS011;8810;48.680;8.894;2023-01-20T12:01:55;6.50;;;2.73;;
17384;SDS011;8810;48.680;8.894;2023-01-20T12:04:29;4.17;;;2.70;;
17384;SDS011;8810;48.680;8.894;2023-01-20T12:07:11;5.00;;;2.57;;
17384;SDS011;8810;48.680;8.894;2023-01-20T12:09:43;5.23;;;2.70;;
17384;SDS011;8810;48.680;8.894;2023-01-20T12:12:16;5.60;;;2.77;;
17384;SDS011;8810;48.680;8.894;2023-01-20T12:14:53;4.87;;;3.10;;
17384;SDS011;8810;48.680;8.894;2023-01-20T12:17:37;4.70;;;3.10;;
17384;SDS011;8810;48.680;8.894;2023-01-20T12:20:10;6.33;;;3.03;;
17384;SDS011;8810;48.680;8.894;2023-01-20T12:22:52;4.33;;;2.93;;
17384;SDS011;8810;48.680;8.894;2023-01-20T12:25:26;7.70;;;3.53;;
17384;SDS011;8810;48.680;8.894;2023-01-20T12:27:55;5.03;;;2.60;;
17384;SDS011;8810;48.680;8.894;2023-01-20T12:30:31;5.43;;;2.53;;
17384;SDS011;8810;48.680;8.894;2023-01-20T12:33:24;6.13;;;2.87;;
17384;SDS011;8810;48.680;8.894;2023-01-20T12:42:13;6.07;;;2.50;;
17384;SDS011;8810;48.680;8.894;2023-01-20T12:44:58;5.23;;;2.37;;
17384;SDS011;8810;48.680;8.894;2023-01-20T12:47:36;5.93;;;2.80;;
17384;SDS011;8810;48.680;8.894;2023-01-20T12:50:18;5.90;;;2.17;;
17384;SDS011;8810;48.680;8.894;2023-01-20T12:52:59;5.87;;;3.10;;
17384;SDS011;8810;48.680;8.894;2023-01-20T12:55:43;4.70;;;2.70;;
17384;SDS011;8810;48.680;8.894;2023-01-20T12:58:21;5.53;;;2.40;;
17384;SDS011;8810;48.680;8.894;2023-01-20T13:01:05;2.80;;;1.63;;
17384;SDS011;8810;48.680;8.894;2023-01-20T13:04:22;4.43;;;1.97;;
17384;SDS011;8810;48.680;8.894;2023-01-20T13:07:12;3.53;;;2.50;;
17384;SDS011;8810;48.680;8.894;2023-01-20T13:09:51;6.23;;;2.20;;
17384;SDS011;8810;48.680;8.894;2023-01-20T13:12:34;5.47;;;2.50;;
17384;SDS011;8810;48.680;8.894;2023-01-20T13:15:17;4.00;;;2.70;;
17384;SDS011;8810;48.680;8.894;2023-01-20T13:17:58;4.03;;;2.13;;
17384;SDS011;8810;48.680;8.894;2023-01-20T13:20:37;6.50;;;2.50;;
17384;SDS011;8810;48.680;8.894;2023-01-20T13:23:10;4.43;;;2.20;;
17384;SDS011;8810;48.680;8.894;2023-01-20T13:25:40;4.97;;;2.20;;
17384;SDS011;8810;48.680;8.894;2023-01-20T13:28:15;10.70;;;2.97;;
17384;SDS011;8810;48.680;8.894;2023-01-20T13:30:43;2.80;;;1.73;;
17384;SDS011;8810;48.680;8.894;2023-01-20T13:33:15;6.17;;;3.00;;
17384;SDS011;8810;48.680;8.894;2023-01-20T13:35:51;3.67;;;2.13;;
17384;SDS011;8810;48.680;8.894;2023-01-20T13:38:22;4.40;;;2.50;;
17384;SDS011;8810;48.680;8.894;2023-01-20T13:40:52;5.90;;;2.20;;
17384;SDS011;8810;48.680;8.894;2023-01-20T13:43:33;4.03;;;2.13;;
17384;SDS011;8810;48.680;8.894;2023-01-20T13:46:35;7.43;;;2.47;;
17384;SDS011;8810;48.680;8.894;2023-01-20T13:49:11;6.33;;;3.27;;
17384;SDS011;8810;48.680;8.894;2023-01-20T13:51:49;5.00;;;2.40;;
17384;SDS011;8810;48.680;8.894;2023-01-20T14:00:22;4.20;;;2.50;;
17384;SDS011;8810;48.680;8.894;2023-01-20T14:02:49;5.00;;;2.67;;
17384;SDS011;8810;48.680;8.894;2023-01-20T14:05:24;6.97;;;3.10;;
17384;SDS011;8810;48.680;8.894;2023-01-20T14:07:53;6.90;;;3.70;;
17384;SDS011;8810;48.680;8.894;2023-01-20T14:10:21;7.03;;;3.10;;
17384;SDS011;8810;48.680;8.894;2023-01-20T14:12:49;4.43;;;2.47;;
17384;SDS011;8810;48.680;8.894;2023-01-20T14:15:31;4.40;;;2.80;;
17384;SDS011;8810;48.680;8.894;2023-01-20T14:18:00;9.93;;;4.70;;
17384;SDS011;8810;48.680;8.894;2023-01-20T14:20:29;11.17;;;4.57;;
17384;SDS011;8810;48.680;8.894;2023-01-20T14:25:55;9.03;;;4.53;;
17384;SDS011;8810;48.680;8.894;2023-01-20T14:28:23;8.77;;;4.00;;
17384;SDS011;8810;48.680;8.894;2023-01-20T14:31:04;8.83;;;4.80;;
17384;SDS011;8810;48.680;8.894;2023-01-20T14:33:41;6.00;;;3.30;;
17384;SDS011;8810;48.680;8.894;2023-01-20T14:36:11;8.67;;;3.73;;
17384;SDS011;8810;48.680;8.894;2023-01-20T14:38:40;10.13;;;4.27;;
17384;SDS011;8810;48.680;8.894;2023-01-20T14:43:51;7.60;;;3.87;;
17384;SDS011;8810;48.680;8.894;2023-01-20T14:46:19;9.53;;;3.67;;
17384;SDS011;8810;48.680;8.894;2023-01-20T14:48:47;9.20;;;4.50;;
17384;SDS011;8810;48.680;8.894;2023-01-20T14:51:14;10.67;;;5.00;;
17384;SDS011;8810;48.680;8.894;2023-01-20T14:53:43;11.73;;;5.53;;
17384;SDS011;8810;48.680;8.894;2023-01-20T14:56:15;8.77;;;4.67;;
17384;SDS011;8810;48.680;8.894;2023-01-20T14:58:44;9.40;;;4.63;;
17384;SDS011;8810;48.680;8.894;2023-01-20T15:01:21;13.00;;;5.50;;
17384;SDS011;8810;48.680;8.894;2023-01-20T15:03:53;15.53;;;6.60;;
17384;SDS011;8810;48.680;8.894;2023-01-20T15:06:22;14.60;;;5.93;;
17384;SDS011;8810;48.680;8.894;2023-01-20T15:08:52;13.80;;;6.43;;
17384;SDS011;8810;48.680;8.894;2023-01-20T15:11:22;14.47;;;6.63;;
17384;SDS011;8810;48.680;8.894;2023-01-20T15:14:08;8.87;;;4.83;;
17384;SDS011;8810;48.680;8.894;2023-01-20T15:16:39;11.70;;;4.40;;
17384;SDS011;8810;48.680;8.894;2023-01-20T15:19:32;11.27;;;5.07;;
17384;SDS011;8810;48.680;8.894;2023-01-20T15:22:13;12.80;;;4.83;;
17384;SDS011;8810;48.680;8.894;2023-01-20T15:24:45;10.07;;;5.07;;
17384;SDS011;8810;48.680;8.894;2023-01-20T15:27:21;9.00;;;4.73;;
17384;SDS011;8810;48.680;8.894;2023-01-20T15:30:10;12.40;;;5.10;;
17384;SDS011;8810;48.680;8.894;2023-01-20T15:32:41;10.00;;;5.20;;
17384;SDS011;8810;48.680;8.894;2023-01-20T15:35:10;11.03;;;5.70;;
17384;SDS011;8810;48.680;8.894;2023-01-20T15:37:39;11.53;;;5.77;;
17384;SDS011;8810;48.680;8.894;2023-01-20T15:40:11;8.50;;;4.97;;
17384;SDS011;8810;48.680;8.894;2023-01-20T15:42:43;11.10;;;4.33;;
17384;SDS011;8810;48.680;8.894;2023-01-20T15:45:11;8.10;;;4.63;;